Mapledale, PA

2:15 PM EDT on April 29, 2017 (GMT -0400)
Venango Regional | | Change Station

Elev 1539 ft 41.38 °N, 79.86 °W | Updated 20 minutes ago

Overcast
Overcast
55 °F
Feels Like 55 °F
N
0
Wind Variable Wind from North

Today
High -- | Low -- °F
--% Chance of Precip.
Yesterday
High -- | Low -- °F
Precip. -- in
Pressure 30.17 in
Visibility 7.0 miles
Clouds Scattered Clouds 900 ft
Mostly Cloudy 2200 ft
Overcast 6500 ft
Dew Point 52 °F
Humidity 88%
Rainfall 0.33 in
Snow Depth Not available.
6:19 AM 8:15 PM
Waxing Crescent, 15% visible
METAR KFKL 291755Z 00000KT 7SM SCT009 BKN022 OVC065 13/11 A3017 RMK AO1 LTG DSNT ALQDS TSB02E17B32E47 P0007 60011 10140 20120 52017
Pressure 30.17 in
Visibility 7.0 miles
Clouds Scattered Clouds 900 ft
Mostly Cloudy 2200 ft
Overcast 6500 ft
Dew Point 52 °F
Humidity 88%
Rainfall 0.33 in
Snow Depth Not available.
6:19 AM 8:15 PM
Waxing Crescent, 15% visible
METAR KFKL 291755Z 00000KT 7SM SCT009 BKN022 OVC065 13/11 A3017 RMK AO1 LTG DSNT ALQDS TSB02E17B32E47 P0007 60011 10140 20120 52017

Get Severe Weather Alerts

Thanks for signing up!

Be on the lookout for a verification email in your inbox.

You'll start receiving the daily forecast at 8 AM.

×

10-Day Weather Forecast

Almanac

Astronomy

Apr. 29, 2017 Rise Set
Actual Time
Civil Twilight
Nautical Twilight
Astronomical Twilight
Moon
Length of Visible Light
Length of Day
Tomorrow will be .
, % of the Moon is Illuminated

Today's Extremes

State Highs State Lows

Community

WunderPhotos

WunderBlog® & News

Nearby

Air Quality

  Air Quality AQ Index Pollutant
Not available.

Snow Depth

Station Depth Elevation

Earthquake Activity

City Distance Mag. Time & Date
Minimum magnitude displayed is 2.5.

Coastal Water Temperatures

Place Temperature

Stations

Nearby Weather Stations

Station Location Temp. Windchill Dew Point Humidity Wind Precip. Elev Updated Type
                   

Watches & Warnings

There are currently no watches in effect.